sensor_id;sensor_type;location;lat;lon;timestamp;P1;durP1;ratioP1;P2;durP2;ratioP2
549;SDS011;20066;48.764;9.176;2022-08-06T00:02:10;3.97;;;2.40;;
549;SDS011;20066;48.764;9.176;2022-08-06T00:04:38;5.60;;;2.50;;
549;SDS011;20066;48.764;9.176;2022-08-06T00:07:08;6.43;;;2.57;;
549;SDS011;20066;48.764;9.176;2022-08-06T00:09:43;5.13;;;2.73;;
549;SDS011;20066;48.764;9.176;2022-08-06T00:12:26;5.53;;;2.30;;
549;SDS011;20066;48.764;9.176;2022-08-06T00:14:55;9.00;;;2.90;;
549;SDS011;20066;48.764;9.176;2022-08-06T00:17:25;5.47;;;2.50;;
549;SDS011;20066;48.764;9.176;2022-08-06T00:19:58;5.37;;;2.57;;
549;SDS011;20066;48.764;9.176;2022-08-06T00:22:29;6.67;;;2.53;;
549;SDS011;20066;48.764;9.176;2022-08-06T00:24:58;9.67;;;3.03;;
549;SDS011;20066;48.764;9.176;2022-08-06T00:27:26;7.20;;;2.30;;
549;SDS011;20066;48.764;9.176;2022-08-06T00:30:04;3.53;;;2.13;;
549;SDS011;20066;48.764;9.176;2022-08-06T00:32:47;5.70;;;2.30;;
549;SDS011;20066;48.764;9.176;2022-08-06T00:35:18;4.40;;;2.53;;
549;SDS011;20066;48.764;9.176;2022-08-06T00:37:48;6.47;;;2.60;;
549;SDS011;20066;48.764;9.176;2022-08-06T00:40:24;7.40;;;2.43;;
549;SDS011;20066;48.764;9.176;2022-08-06T00:42:54;4.83;;;2.33;;
549;SDS011;20066;48.764;9.176;2022-08-06T00:45:23;5.07;;;2.30;;
549;SDS011;20066;48.764;9.176;2022-08-06T00:47:52;5.00;;;2.00;;
549;SDS011;20066;48.764;9.176;2022-08-06T00:50:32;3.93;;;2.30;;
549;SDS011;20066;48.764;9.176;2022-08-06T00:53:01;9.87;;;2.90;;
549;SDS011;20066;48.764;9.176;2022-08-06T00:55:29;4.00;;;2.23;;
549;SDS011;20066;48.764;9.176;2022-08-06T00:58:07;3.83;;;2.10;;
549;SDS011;20066;48.764;9.176;2022-08-06T01:00:38;3.47;;;2.13;;
549;SDS011;20066;48.764;9.176;2022-08-06T01:03:18;7.83;;;2.60;;
549;SDS011;20066;48.764;9.176;2022-08-06T01:05:53;4.60;;;2.10;;
549;SDS011;20066;48.764;9.176;2022-08-06T01:08:41;5.83;;;2.20;;
549;SDS011;20066;48.764;9.176;2022-08-06T01:11:10;3.30;;;1.80;;
549;SDS011;20066;48.764;9.176;2022-08-06T01:13:38;4.10;;;2.23;;
549;SDS011;20066;48.764;9.176;2022-08-06T01:16:27;4.47;;;2.30;;
549;SDS011;20066;48.764;9.176;2022-08-06T01:19:03;4.30;;;2.13;;
549;SDS011;20066;48.764;9.176;2022-08-06T01:22:10;3.37;;;2.13;;
549;SDS011;20066;48.764;9.176;2022-08-06T01:25:02;4.60;;;2.30;;
549;SDS011;20066;48.764;9.176;2022-08-06T01:27:42;3.53;;;2.37;;
549;SDS011;20066;48.764;9.176;2022-08-06T01:30:14;5.40;;;2.30;;
549;SDS011;20066;48.764;9.176;2022-08-06T01:32:52;3.60;;;2.20;;
549;SDS011;20066;48.764;9.176;2022-08-06T01:35:25;5.23;;;2.30;;
549;SDS011;20066;48.764;9.176;2022-08-06T01:38:20;7.33;;;2.43;;
549;SDS011;20066;48.764;9.176;2022-08-06T01:40:52;5.83;;;2.17;;
549;SDS011;20066;48.764;9.176;2022-08-06T01:43:23;3.40;;;2.47;;
549;SDS011;20066;48.764;9.176;2022-08-06T01:46:14;4.60;;;1.93;;
549;SDS011;20066;48.764;9.176;2022-08-06T01:48:42;6.20;;;2.63;;
549;SDS011;20066;48.764;9.176;2022-08-06T01:51:11;3.90;;;2.00;;
549;SDS011;20066;48.764;9.176;2022-08-06T01:53:59;5.73;;;2.40;;
549;SDS011;20066;48.764;9.176;2022-08-06T01:56:32;4.20;;;1.80;;
549;SDS011;20066;48.764;9.176;2022-08-06T01:59:24;5.30;;;1.97;;
549;SDS011;20066;48.764;9.176;2022-08-06T02:01:55;6.60;;;2.20;;
549;SDS011;20066;48.764;9.176;2022-08-06T02:04:29;3.33;;;2.10;;
549;SDS011;20066;48.764;9.176;2022-08-06T02:07:05;5.27;;;2.20;;
549;SDS011;20066;48.764;9.176;2022-08-06T02:09:55;11.03;;;2.07;;
549;SDS011;20066;48.764;9.176;2022-08-06T02:12:26;4.80;;;2.10;;
549;SDS011;20066;48.764;9.176;2022-08-06T02:15:02;4.90;;;2.03;;
549;SDS011;20066;48.764;9.176;2022-08-06T02:17:46;4.17;;;2.50;;
549;SDS011;20066;48.764;9.176;2022-08-06T02:20:33;3.70;;;2.03;;
549;SDS011;20066;48.764;9.176;2022-08-06T02:23:18;5.57;;;2.03;;
549;SDS011;20066;48.764;9.176;2022-08-06T02:25:49;4.57;;;1.87;;
549;SDS011;20066;48.764;9.176;2022-08-06T02:28:21;3.60;;;1.90;;
549;SDS011;20066;48.764;9.176;2022-08-06T02:30:55;3.80;;;2.17;;
549;SDS011;20066;48.764;9.176;2022-08-06T02:33:26;5.00;;;2.20;;
549;SDS011;20066;48.764;9.176;2022-08-06T02:36:15;3.77;;;1.97;;
549;SDS011;20066;48.764;9.176;2022-08-06T02:38:53;4.73;;;2.20;;
549;SDS011;20066;48.764;9.176;2022-08-06T02:41:30;4.30;;;1.70;;
549;SDS011;20066;48.764;9.176;2022-08-06T02:44:05;3.53;;;2.00;;
549;SDS011;20066;48.764;9.176;2022-08-06T02:46:39;4.27;;;2.33;;
549;SDS011;20066;48.764;9.176;2022-08-06T02:49:15;5.67;;;2.43;;
549;SDS011;20066;48.764;9.176;2022-08-06T02:51:51;4.77;;;2.23;;
549;SDS011;20066;48.764;9.176;2022-08-06T02:54:44;3.00;;;1.77;;
549;SDS011;20066;48.764;9.176;2022-08-06T02:57:16;4.30;;;2.03;;
549;SDS011;20066;48.764;9.176;2022-08-06T02:59:49;4.60;;;2.00;;
549;SDS011;20066;48.764;9.176;2022-08-06T03:02:23;4.00;;;2.07;;
549;SDS011;20066;48.764;9.176;2022-08-06T03:04:53;3.80;;;2.37;;
549;SDS011;20066;48.764;9.176;2022-08-06T03:07:24;7.63;;;2.07;;
549;SDS011;20066;48.764;9.176;2022-08-06T03:09:56;2.90;;;2.10;;
549;SDS011;20066;48.764;9.176;2022-08-06T03:12:26;4.67;;;2.13;;
549;SDS011;20066;48.764;9.176;2022-08-06T03:14:57;4.50;;;2.03;;
549;SDS011;20066;48.764;9.176;2022-08-06T03:17:37;5.50;;;1.97;;
549;SDS011;20066;48.764;9.176;2022-08-06T03:20:07;12.80;;;1.93;;
549;SDS011;20066;48.764;9.176;2022-08-06T03:22:43;4.00;;;2.20;;
549;SDS011;20066;48.764;9.176;2022-08-06T03:25:14;2.77;;;1.90;;
549;SDS011;20066;48.764;9.176;2022-08-06T03:27:46;3.60;;;2.00;;
549;SDS011;20066;48.764;9.176;2022-08-06T03:30:16;4.33;;;2.37;;
549;SDS011;20066;48.764;9.176;2022-08-06T03:33:01;4.27;;;2.10;;
549;SDS011;20066;48.764;9.176;2022-08-06T03:35:51;4.77;;;2.40;;
549;SDS011;20066;48.764;9.176;2022-08-06T03:38:21;3.70;;;2.20;;
549;SDS011;20066;48.764;9.176;2022-08-06T03:40:54;6.40;;;1.90;;
549;SDS011;20066;48.764;9.176;2022-08-06T03:43:23;4.83;;;2.30;;
549;SDS011;20066;48.764;9.176;2022-08-06T03:45:56;4.87;;;2.50;;
549;SDS011;20066;48.764;9.176;2022-08-06T03:48:31;6.03;;;2.10;;
549;SDS011;20066;48.764;9.176;2022-08-06T03:51:05;4.90;;;2.33;;
549;SDS011;20066;48.764;9.176;2022-08-06T03:53:40;3.50;;;2.10;;
549;SDS011;20066;48.764;9.176;2022-08-06T03:56:16;4.40;;;2.30;;
549;SDS011;20066;48.764;9.176;2022-08-06T03:58:56;4.90;;;2.40;;
549;SDS011;20066;48.764;9.176;2022-08-06T04:01:31;4.73;;;2.27;;
549;SDS011;20066;48.764;9.176;2022-08-06T04:04:16;6.07;;;2.67;;
549;SDS011;20066;48.764;9.176;2022-08-06T04:06:53;3.50;;;2.10;;
549;SDS011;20066;48.764;9.176;2022-08-06T04:09:22;7.07;;;2.67;;
549;SDS011;20066;48.764;9.176;2022-08-06T04:12:11;6.03;;;2.70;;
549;SDS011;20066;48.764;9.176;2022-08-06T04:15:00;3.20;;;2.00;;
549;SDS011;20066;48.764;9.176;2022-08-06T04:17:33;3.73;;;2.33;;
549;SDS011;20066;48.764;9.176;2022-08-06T04:20:08;3.20;;;2.27;;
549;SDS011;20066;48.764;9.176;2022-08-06T04:22:38;3.90;;;2.17;;
549;SDS011;20066;48.764;9.176;2022-08-06T04:25:26;3.50;;;2.33;;
549;SDS011;20066;48.764;9.176;2022-08-06T04:27:55;3.67;;;2.10;;
549;SDS011;20066;48.764;9.176;2022-08-06T04:30:26;4.33;;;2.23;;
549;SDS011;20066;48.764;9.176;2022-08-06T04:32:55;4.73;;;2.50;;
549;SDS011;20066;48.764;9.176;2022-08-06T04:35:28;3.73;;;2.50;;
549;SDS011;20066;48.764;9.176;2022-08-06T04:38:17;4.40;;;2.33;;
549;SDS011;20066;48.764;9.176;2022-08-06T04:40:56;4.40;;;2.40;;
549;SDS011;20066;48.764;9.176;2022-08-06T04:43:34;4.07;;;2.23;;
549;SDS011;20066;48.764;9.176;2022-08-06T04:46:16;5.33;;;2.50;;
549;SDS011;20066;48.764;9.176;2022-08-06T04:48:46;6.97;;;2.97;;
549;SDS011;20066;48.764;9.176;2022-08-06T04:51:23;16.60;;;2.60;;
549;SDS011;20066;48.764;9.176;2022-08-06T04:54:11;3.60;;;2.60;;
549;SDS011;20066;48.764;9.176;2022-08-06T04:56:40;3.73;;;2.57;;
549;SDS011;20066;48.764;9.176;2022-08-06T04:59:15;3.37;;;2.30;;
549;SDS011;20066;48.764;9.176;2022-08-06T05:01:44;6.07;;;2.60;;
549;SDS011;20066;48.764;9.176;2022-08-06T05:04:27;4.63;;;2.47;;
549;SDS011;20066;48.764;9.176;2022-08-06T05:07:01;4.83;;;2.13;;
549;SDS011;20066;48.764;9.176;2022-08-06T05:09:39;3.67;;;2.53;;
549;SDS011;20066;48.764;9.176;2022-08-06T05:12:19;3.97;;;2.23;;
549;SDS011;20066;48.764;9.176;2022-08-06T05:14:52;5.00;;;2.53;;
549;SDS011;20066;48.764;9.176;2022-08-06T05:17:23;5.43;;;2.33;;
549;SDS011;20066;48.764;9.176;2022-08-06T05:20:02;4.63;;;2.60;;
549;SDS011;20066;48.764;9.176;2022-08-06T05:22:55;3.90;;;2.30;;
549;SDS011;20066;48.764;9.176;2022-08-06T05:25:29;4.33;;;2.30;;
549;SDS011;20066;48.764;9.176;2022-08-06T05:30:29;4.17;;;2.63;;
549;SDS011;20066;48.764;9.176;2022-08-06T05:32:57;4.43;;;2.53;;
549;SDS011;20066;48.764;9.176;2022-08-06T05:35:27;5.10;;;3.00;;
549;SDS011;20066;48.764;9.176;2022-08-06T05:38:12;6.63;;;2.57;;
549;SDS011;20066;48.764;9.176;2022-08-06T05:40:57;4.57;;;2.70;;
549;SDS011;20066;48.764;9.176;2022-08-06T05:43:26;5.93;;;2.43;;
549;SDS011;20066;48.764;9.176;2022-08-06T05:46:15;4.80;;;2.97;;
549;SDS011;20066;48.764;9.176;2022-08-06T05:48:53;7.70;;;2.80;;
549;SDS011;20066;48.764;9.176;2022-08-06T05:51:28;5.47;;;2.40;;
549;SDS011;20066;48.764;9.176;2022-08-06T05:54:13;5.40;;;2.53;;
549;SDS011;20066;48.764;9.176;2022-08-06T05:56:46;6.00;;;2.90;;
549;SDS011;20066;48.764;9.176;2022-08-06T05:59:20;3.40;;;2.47;;
549;SDS011;20066;48.764;9.176;2022-08-06T06:02:04;7.30;;;2.70;;
549;SDS011;20066;48.764;9.176;2022-08-06T06:04:34;8.80;;;2.80;;
549;SDS011;20066;48.764;9.176;2022-08-06T06:07:11;3.97;;;2.37;;
549;SDS011;20066;48.764;9.176;2022-08-06T06:10:01;6.43;;;2.60;;
549;SDS011;20066;48.764;9.176;2022-08-06T06:12:41;8.03;;;2.60;;
549;SDS011;20066;48.764;9.176;2022-08-06T06:15:11;3.90;;;2.10;;
549;SDS011;20066;48.764;9.176;2022-08-06T06:18:03;3.77;;;2.70;;
549;SDS011;20066;48.764;9.176;2022-08-06T06:20:58;6.17;;;2.90;;
549;SDS011;20066;48.764;9.176;2022-08-06T06:23:46;5.10;;;2.60;;
549;SDS011;20066;48.764;9.176;2022-08-06T06:26:24;6.13;;;2.80;;
549;SDS011;20066;48.764;9.176;2022-08-06T06:29:03;5.87;;;2.57;;
549;SDS011;20066;48.764;9.176;2022-08-06T06:31:42;4.70;;;3.07;;
549;SDS011;20066;48.764;9.176;2022-08-06T06:34:40;5.33;;;2.80;;
549;SDS011;20066;48.764;9.176;2022-08-06T06:37:19;4.40;;;2.20;;
549;SDS011;20066;48.764;9.176;2022-08-06T06:40:08;3.80;;;3.03;;
549;SDS011;20066;48.764;9.176;2022-08-06T06:42:48;7.00;;;3.23;;
549;SDS011;20066;48.764;9.176;2022-08-06T06:45:28;8.40;;;2.87;;
549;SDS011;20066;48.764;9.176;2022-08-06T06:48:21;5.93;;;3.10;;
549;SDS011;20066;48.764;9.176;2022-08-06T06:51:02;4.13;;;2.83;;
549;SDS011;20066;48.764;9.176;2022-08-06T06:53:55;4.87;;;2.57;;
549;SDS011;20066;48.764;9.176;2022-08-06T06:56:36;8.00;;;3.20;;
549;SDS011;20066;48.764;9.176;2022-08-06T06:59:13;5.20;;;2.90;;
549;SDS011;20066;48.764;9.176;2022-08-06T07:01:43;7.73;;;3.20;;
549;SDS011;20066;48.764;9.176;2022-08-06T07:04:20;4.93;;;3.10;;
549;SDS011;20066;48.764;9.176;2022-08-06T07:06:53;5.93;;;3.07;;
549;SDS011;20066;48.764;9.176;2022-08-06T07:09:33;8.43;;;3.10;;
549;SDS011;20066;48.764;9.176;2022-08-06T07:12:18;8.77;;;2.80;;
549;SDS011;20066;48.764;9.176;2022-08-06T07:14:53;7.23;;;3.50;;
549;SDS011;20066;48.764;9.176;2022-08-06T07:17:27;9.13;;;3.27;;
549;SDS011;20066;48.764;9.176;2022-08-06T07:20:18;5.23;;;3.20;;
549;SDS011;20066;48.764;9.176;2022-08-06T07:22:54;4.63;;;3.47;;
549;SDS011;20066;48.764;9.176;2022-08-06T07:25:44;4.43;;;2.80;;
549;SDS011;20066;48.764;9.176;2022-08-06T07:28:21;7.27;;;3.30;;
549;SDS011;20066;48.764;9.176;2022-08-06T07:30:55;7.40;;;2.97;;
549;SDS011;20066;48.764;9.176;2022-08-06T07:33:37;3.87;;;2.70;;
549;SDS011;20066;48.764;9.176;2022-08-06T07:36:26;4.30;;;2.77;;
549;SDS011;20066;48.764;9.176;2022-08-06T07:39:04;6.20;;;3.53;;
549;SDS011;20066;48.764;9.176;2022-08-06T07:41:40;5.30;;;3.10;;
549;SDS011;20066;48.764;9.176;2022-08-06T07:44:28;5.97;;;3.00;;
549;SDS011;20066;48.764;9.176;2022-08-06T07:47:24;6.00;;;2.70;;
549;SDS011;20066;48.764;9.176;2022-08-06T07:50:14;5.47;;;3.07;;
549;SDS011;20066;48.764;9.176;2022-08-06T07:52:42;3.47;;;2.57;;
549;SDS011;20066;48.764;9.176;2022-08-06T07:55:11;4.63;;;2.63;;
549;SDS011;20066;48.764;9.176;2022-08-06T07:57:40;7.67;;;2.80;;
549;SDS011;20066;48.764;9.176;2022-08-06T08:00:21;18.43;;;3.50;;
549;SDS011;20066;48.764;9.176;2022-08-06T08:02:54;6.03;;;3.27;;
549;SDS011;20066;48.764;9.176;2022-08-06T08:06:00;9.50;;;4.10;;
549;SDS011;20066;48.764;9.176;2022-08-06T08:08:50;5.97;;;3.10;;
549;SDS011;20066;48.764;9.176;2022-08-06T08:11:22;5.80;;;3.50;;
549;SDS011;20066;48.764;9.176;2022-08-06T08:14:14;4.10;;;2.80;;
549;SDS011;20066;48.764;9.176;2022-08-06T08:16:44;5.43;;;3.40;;
549;SDS011;20066;48.764;9.176;2022-08-06T08:19:23;6.17;;;3.57;;
549;SDS011;20066;48.764;9.176;2022-08-06T08:22:03;6.40;;;3.03;;
549;SDS011;20066;48.764;9.176;2022-08-06T08:24:39;3.60;;;2.83;;
549;SDS011;20066;48.764;9.176;2022-08-06T08:27:19;7.07;;;2.77;;
549;SDS011;20066;48.764;9.176;2022-08-06T08:29:50;7.17;;;2.90;;
549;SDS011;20066;48.764;9.176;2022-08-06T08:32:23;5.17;;;2.50;;
549;SDS011;20066;48.764;9.176;2022-08-06T08:34:53;5.70;;;3.43;;
549;SDS011;20066;48.764;9.176;2022-08-06T08:37:23;5.47;;;3.00;;
549;SDS011;20066;48.764;9.176;2022-08-06T08:39:51;7.23;;;3.00;;
549;SDS011;20066;48.764;9.176;2022-08-06T08:42:23;7.33;;;3.07;;
549;SDS011;20066;48.764;9.176;2022-08-06T08:45:01;5.10;;;2.83;;
549;SDS011;20066;48.764;9.176;2022-08-06T08:47:39;8.40;;;3.43;;
549;SDS011;20066;48.764;9.176;2022-08-06T08:50:21;8.00;;;3.17;;
549;SDS011;20066;48.764;9.176;2022-08-06T08:52:52;5.23;;;2.67;;
549;SDS011;20066;48.764;9.176;2022-08-06T08:55:30;5.20;;;2.73;;
549;SDS011;20066;48.764;9.176;2022-08-06T08:58:18;7.77;;;2.97;;
549;SDS011;20066;48.764;9.176;2022-08-06T09:01:07;5.07;;;3.10;;
549;SDS011;20066;48.764;9.176;2022-08-06T09:03:56;8.33;;;2.77;;
549;SDS011;20066;48.764;9.176;2022-08-06T09:06:28;5.73;;;2.73;;
549;SDS011;20066;48.764;9.176;2022-08-06T09:09:05;4.73;;;2.67;;
549;SDS011;20066;48.764;9.176;2022-08-06T09:11:41;5.07;;;2.70;;
549;SDS011;20066;48.764;9.176;2022-08-06T09:14:29;5.50;;;3.10;;
549;SDS011;20066;48.764;9.176;2022-08-06T09:16:58;3.70;;;2.77;;
549;SDS011;20066;48.764;9.176;2022-08-06T09:19:27;4.40;;;2.77;;
549;SDS011;20066;48.764;9.176;2022-08-06T09:22:06;4.83;;;2.83;;
549;SDS011;20066;48.764;9.176;2022-08-06T09:24:35;4.77;;;3.00;;
549;SDS011;20066;48.764;9.176;2022-08-06T09:27:05;4.63;;;3.00;;
549;SDS011;20066;48.764;9.176;2022-08-06T09:29:56;4.90;;;2.87;;
549;SDS011;20066;48.764;9.176;2022-08-06T09:32:45;5.07;;;2.90;;
549;SDS011;20066;48.764;9.176;2022-08-06T09:35:23;6.53;;;2.97;;
549;SDS011;20066;48.764;9.176;2022-08-06T09:38:12;5.70;;;2.83;;
549;SDS011;20066;48.764;9.176;2022-08-06T09:43:41;6.27;;;2.97;;
549;SDS011;20066;48.764;9.176;2022-08-06T09:46:36;4.50;;;2.60;;
549;SDS011;20066;48.764;9.176;2022-08-06T09:49:06;11.23;;;3.10;;
549;SDS011;20066;48.764;9.176;2022-08-06T09:52:11;5.27;;;2.90;;
549;SDS011;20066;48.764;9.176;2022-08-06T09:54:44;9.70;;;3.23;;
549;SDS011;20066;48.764;9.176;2022-08-06T09:57:19;6.03;;;3.33;;
549;SDS011;20066;48.764;9.176;2022-08-06T10:00:03;5.53;;;3.20;;
549;SDS011;20066;48.764;9.176;2022-08-06T10:02:40;3.70;;;2.67;;
549;SDS011;20066;48.764;9.176;2022-08-06T10:05:16;6.40;;;2.97;;
549;SDS011;20066;48.764;9.176;2022-08-06T10:07:46;5.03;;;2.70;;
549;SDS011;20066;48.764;9.176;2022-08-06T10:10:20;4.47;;;2.80;;
549;SDS011;20066;48.764;9.176;2022-08-06T10:13:14;5.37;;;2.97;;
549;SDS011;20066;48.764;9.176;2022-08-06T10:15:45;7.53;;;3.20;;
549;SDS011;20066;48.764;9.176;2022-08-06T10:18:34;6.80;;;3.07;;
549;SDS011;20066;48.764;9.176;2022-08-06T10:21:24;8.43;;;2.80;;
549;SDS011;20066;48.764;9.176;2022-08-06T10:24:06;5.83;;;3.03;;
549;SDS011;20066;48.764;9.176;2022-08-06T10:26:37;6.30;;;3.47;;
549;SDS011;20066;48.764;9.176;2022-08-06T10:29:08;4.50;;;2.77;;
549;SDS011;20066;48.764;9.176;2022-08-06T10:31:39;9.30;;;2.90;;
549;SDS011;20066;48.764;9.176;2022-08-06T10:34:08;5.33;;;3.20;;
549;SDS011;20066;48.764;9.176;2022-08-06T10:36:38;8.23;;;2.90;;
549;SDS011;20066;48.764;9.176;2022-08-06T10:39:08;4.10;;;2.73;;
549;SDS011;20066;48.764;9.176;2022-08-06T10:41:58;5.63;;;2.70;;
549;SDS011;20066;48.764;9.176;2022-08-06T10:44:43;6.30;;;3.17;;
549;SDS011;20066;48.764;9.176;2022-08-06T10:47:16;5.97;;;2.90;;
549;SDS011;20066;48.764;9.176;2022-08-06T10:50:04;4.43;;;2.53;;
549;SDS011;20066;48.764;9.176;2022-08-06T10:52:53;4.23;;;3.13;;
549;SDS011;20066;48.764;9.176;2022-08-06T10:55:24;3.83;;;2.50;;
549;SDS011;20066;48.764;9.176;2022-08-06T10:58:11;3.80;;;2.70;;
549;SDS011;20066;48.764;9.176;2022-08-06T11:00:43;15.23;;;3.90;;
549;SDS011;20066;48.764;9.176;2022-08-06T11:03:22;4.30;;;2.93;;
549;SDS011;20066;48.764;9.176;2022-08-06T11:05:56;6.33;;;3.07;;
549;SDS011;20066;48.764;9.176;2022-08-06T11:08:48;8.20;;;2.90;;
549;SDS011;20066;48.764;9.176;2022-08-06T11:11:30;3.43;;;2.50;;
549;SDS011;20066;48.764;9.176;2022-08-06T11:14:35;4.80;;;2.90;;
549;SDS011;20066;48.764;9.176;2022-08-06T11:17:05;8.70;;;2.73;;
549;SDS011;20066;48.764;9.176;2022-08-06T11:19:37;4.67;;;2.93;;
549;SDS011;20066;48.764;9.176;2022-08-06T11:22:34;5.73;;;2.57;;
549;SDS011;20066;48.764;9.176;2022-08-06T11:25:07;5.43;;;3.33;;
549;SDS011;20066;48.764;9.176;2022-08-06T11:27:52;5.10;;;2.77;;
549;SDS011;20066;48.764;9.176;2022-08-06T11:30:39;4.03;;;2.20;;
549;SDS011;20066;48.764;9.176;2022-08-06T11:33:12;5.80;;;2.73;;
549;SDS011;20066;48.764;9.176;2022-08-06T11:35:43;5.33;;;3.20;;
549;SDS011;20066;48.764;9.176;2022-08-06T11:41:44;3.23;;;2.40;;
549;SDS011;20066;48.764;9.176;2022-08-06T11:44:23;28.90;;;3.70;;
549;SDS011;20066;48.764;9.176;2022-08-06T11:47:09;4.80;;;2.70;;
549;SDS011;20066;48.764;9.176;2022-08-06T11:49:56;8.23;;;3.17;;
549;SDS011;20066;48.764;9.176;2022-08-06T11:55:21;3.60;;;2.30;;
549;SDS011;20066;48.764;9.176;2022-08-06T12:00:55;4.50;;;3.07;;
549;SDS011;20066;48.764;9.176;2022-08-06T12:03:40;6.47;;;2.70;;
549;SDS011;20066;48.764;9.176;2022-08-06T12:06:18;4.07;;;2.53;;
549;SDS011;20066;48.764;9.176;2022-08-06T12:09:06;6.30;;;3.27;;
549;SDS011;20066;48.764;9.176;2022-08-06T12:11:48;5.47;;;2.70;;
549;SDS011;20066;48.764;9.176;2022-08-06T12:14:38;5.10;;;2.40;;
549;SDS011;20066;48.764;9.176;2022-08-06T12:17:16;5.00;;;2.70;;
549;SDS011;20066;48.764;9.176;2022-08-06T12:19:47;4.00;;;2.40;;
549;SDS011;20066;48.764;9.176;2022-08-06T12:22:27;5.30;;;2.70;;
549;SDS011;20066;48.764;9.176;2022-08-06T12:24:55;3.90;;;2.80;;
549;SDS011;20066;48.764;9.176;2022-08-06T12:27:38;4.23;;;2.40;;
549;SDS011;20066;48.764;9.176;2022-08-06T12:30:16;3.73;;;2.00;;
549;SDS011;20066;48.764;9.176;2022-08-06T12:33:03;3.80;;;2.47;;
549;SDS011;20066;48.764;9.176;2022-08-06T12:35:48;4.27;;;2.10;;
549;SDS011;20066;48.764;9.176;2022-08-06T12:38:17;5.80;;;2.20;;
549;SDS011;20066;48.764;9.176;2022-08-06T12:40:53;4.50;;;2.57;;
549;SDS011;20066;48.764;9.176;2022-08-06T12:43:23;5.03;;;2.63;;
549;SDS011;20066;48.764;9.176;2022-08-06T12:46:11;5.37;;;2.90;;
549;SDS011;20066;48.764;9.176;2022-08-06T12:48:47;9.40;;;3.70;;
549;SDS011;20066;48.764;9.176;2022-08-06T12:51:18;4.50;;;2.50;;
549;SDS011;20066;48.764;9.176;2022-08-06T12:53:53;4.07;;;2.67;;
549;SDS011;20066;48.764;9.176;2022-08-06T12:56:25;6.50;;;3.10;;
549;SDS011;20066;48.764;9.176;2022-08-06T12:58:59;5.13;;;2.70;;
549;SDS011;20066;48.764;9.176;2022-08-06T13:01:31;6.20;;;2.70;;
549;SDS011;20066;48.764;9.176;2022-08-06T13:04:21;8.33;;;3.00;;
549;SDS011;20066;48.764;9.176;2022-08-06T13:06:58;4.30;;;2.50;;
549;SDS011;20066;48.764;9.176;2022-08-06T13:09:39;7.03;;;2.50;;
549;SDS011;20066;48.764;9.176;2022-08-06T13:12:27;4.37;;;2.80;;
549;SDS011;20066;48.764;9.176;2022-08-06T13:15:15;3.93;;;2.30;;
549;SDS011;20066;48.764;9.176;2022-08-06T13:18:11;5.23;;;2.50;;
549;SDS011;20066;48.764;9.176;2022-08-06T13:21:00;4.90;;;2.30;;
549;SDS011;20066;48.764;9.176;2022-08-06T13:23:33;6.50;;;2.60;;
549;SDS011;20066;48.764;9.176;2022-08-06T13:26:12;7.40;;;2.53;;
549;SDS011;20066;48.764;9.176;2022-08-06T13:29:04;3.47;;;2.23;;
549;SDS011;20066;48.764;9.176;2022-08-06T13:31:58;3.27;;;2.03;;
549;SDS011;20066;48.764;9.176;2022-08-06T13:34:28;3.10;;;2.13;;
549;SDS011;20066;48.764;9.176;2022-08-06T13:36:57;3.60;;;1.80;;
549;SDS011;20066;48.764;9.176;2022-08-06T13:39:31;3.57;;;2.20;;
549;SDS011;20066;48.764;9.176;2022-08-06T13:42:00;3.97;;;2.40;;
549;SDS011;20066;48.764;9.176;2022-08-06T13:44:40;5.77;;;2.70;;
549;SDS011;20066;48.764;9.176;2022-08-06T13:47:10;4.90;;;2.17;;
549;SDS011;20066;48.764;9.176;2022-08-06T13:50:02;4.03;;;2.20;;
549;SDS011;20066;48.764;9.176;2022-08-06T13:52:33;5.13;;;2.50;;
549;SDS011;20066;48.764;9.176;2022-08-06T13:55:03;3.30;;;2.20;;
549;SDS011;20066;48.764;9.176;2022-08-06T13:57:34;5.57;;;2.00;;
549;SDS011;20066;48.764;9.176;2022-08-06T14:00:09;5.83;;;2.13;;
549;SDS011;20066;48.764;9.176;2022-08-06T14:02:45;4.83;;;2.20;;
549;SDS011;20066;48.764;9.176;2022-08-06T14:05:14;4.67;;;2.03;;
549;SDS011;20066;48.764;9.176;2022-08-06T14:07:49;3.47;;;2.10;;
549;SDS011;20066;48.764;9.176;2022-08-06T14:10:20;4.77;;;2.07;;
549;SDS011;20066;48.764;9.176;2022-08-06T14:12:55;5.17;;;2.30;;
549;SDS011;20066;48.764;9.176;2022-08-06T14:15:41;5.40;;;2.53;;
549;SDS011;20066;48.764;9.176;2022-08-06T14:18:11;4.50;;;1.97;;
549;SDS011;20066;48.764;9.176;2022-08-06T14:20:39;6.30;;;2.03;;
549;SDS011;20066;48.764;9.176;2022-08-06T14:23:07;4.23;;;1.90;;
549;SDS011;20066;48.764;9.176;2022-08-06T14:25:36;5.80;;;2.20;;
549;SDS011;20066;48.764;9.176;2022-08-06T14:28:24;4.83;;;2.30;;
549;SDS011;20066;48.764;9.176;2022-08-06T14:30:52;2.50;;;1.60;;
549;SDS011;20066;48.764;9.176;2022-08-06T14:33:25;2.77;;;1.80;;
549;SDS011;20066;48.764;9.176;2022-08-06T14:36:04;6.20;;;2.20;;
549;SDS011;20066;48.764;9.176;2022-08-06T14:38:33;3.97;;;1.93;;
549;SDS011;20066;48.764;9.176;2022-08-06T14:41:06;10.33;;;2.13;;
549;SDS011;20066;48.764;9.176;2022-08-06T14:44:11;4.30;;;2.00;;
549;SDS011;20066;48.764;9.176;2022-08-06T14:46:56;4.70;;;2.07;;
549;SDS011;20066;48.764;9.176;2022-08-06T14:49:25;4.90;;;2.17;;
549;SDS011;20066;48.764;9.176;2022-08-06T14:52:17;3.60;;;1.90;;
549;SDS011;20066;48.764;9.176;2022-08-06T14:54:49;4.37;;;2.00;;
549;SDS011;20066;48.764;9.176;2022-08-06T14:57:31;3.90;;;2.10;;
549;SDS011;20066;48.764;9.176;2022-08-06T15:00:18;3.30;;;2.00;;
549;SDS011;20066;48.764;9.176;2022-08-06T15:03:03;3.43;;;1.73;;
549;SDS011;20066;48.764;9.176;2022-08-06T15:05:33;3.63;;;1.90;;
549;SDS011;20066;48.764;9.176;2022-08-06T15:08:21;4.63;;;2.10;;
549;SDS011;20066;48.764;9.176;2022-08-06T15:10:49;4.90;;;2.00;;
549;SDS011;20066;48.764;9.176;2022-08-06T15:13:18;4.87;;;1.83;;
549;SDS011;20066;48.764;9.176;2022-08-06T15:16:01;3.43;;;1.90;;
549;SDS011;20066;48.764;9.176;2022-08-06T15:18:36;3.13;;;1.70;;
549;SDS011;20066;48.764;9.176;2022-08-06T15:21:24;3.23;;;1.70;;
549;SDS011;20066;48.764;9.176;2022-08-06T15:24:04;5.10;;;2.10;;
549;SDS011;20066;48.764;9.176;2022-08-06T15:26:33;3.83;;;1.80;;
549;SDS011;20066;48.764;9.176;2022-08-06T15:29:15;4.20;;;2.30;;
549;SDS011;20066;48.764;9.176;2022-08-06T15:31:44;3.73;;;1.83;;
549;SDS011;20066;48.764;9.176;2022-08-06T15:34:13;4.57;;;1.77;;
549;SDS011;20066;48.764;9.176;2022-08-06T15:36:46;6.43;;;1.90;;
549;SDS011;20066;48.764;9.176;2022-08-06T15:39:28;2.63;;;1.80;;
549;SDS011;20066;48.764;9.176;2022-08-06T15:42:16;7.30;;;2.27;;
549;SDS011;20066;48.764;9.176;2022-08-06T15:44:46;3.33;;;1.60;;
549;SDS011;20066;48.764;9.176;2022-08-06T15:47:14;4.37;;;1.87;;
549;SDS011;20066;48.764;9.176;2022-08-06T15:49:52;4.20;;;1.97;;
549;SDS011;20066;48.764;9.176;2022-08-06T15:52:30;3.77;;;1.73;;
549;SDS011;20066;48.764;9.176;2022-08-06T15:54:58;6.83;;;1.60;;
549;SDS011;20066;48.764;9.176;2022-08-06T15:57:26;5.23;;;2.03;;
549;SDS011;20066;48.764;9.176;2022-08-06T16:00:15;3.67;;;2.23;;
549;SDS011;20066;48.764;9.176;2022-08-06T16:02:48;4.80;;;1.90;;
549;SDS011;20066;48.764;9.176;2022-08-06T16:05:17;5.77;;;2.17;;
549;SDS011;20066;48.764;9.176;2022-08-06T16:08:05;4.97;;;2.10;;
549;SDS011;20066;48.764;9.176;2022-08-06T16:10:56;3.00;;;1.70;;
549;SDS011;20066;48.764;9.176;2022-08-06T16:13:25;5.30;;;2.03;;
549;SDS011;20066;48.764;9.176;2022-08-06T16:15:54;6.50;;;2.20;;
549;SDS011;20066;48.764;9.176;2022-08-06T16:18:23;3.97;;;2.07;;
549;SDS011;20066;48.764;9.176;2022-08-06T16:20:56;4.27;;;1.90;;
549;SDS011;20066;48.764;9.176;2022-08-06T16:23:31;3.63;;;1.83;;
549;SDS011;20066;48.764;9.176;2022-08-06T16:26:19;3.80;;;2.10;;
549;SDS011;20066;48.764;9.176;2022-08-06T16:29:07;7.37;;;2.13;;
549;SDS011;20066;48.764;9.176;2022-08-06T16:31:36;7.13;;;2.27;;
549;SDS011;20066;48.764;9.176;2022-08-06T16:34:15;10.00;;;1.57;;
549;SDS011;20066;48.764;9.176;2022-08-06T16:36:54;6.20;;;1.50;;